sensor_id;sensor_type;location;lat;lon;timestamp;pressure;altitude;pressure_sealevel;temperature;humidity
11710;BME280;5911;51.036;6.972;2022-08-01T00:01:13;100789.16;;;23.05;100.00
11710;BME280;5911;51.036;6.972;2022-08-01T00:03:41;100792.25;;;23.02;100.00
11710;BME280;5911;51.036;6.972;2022-08-01T00:06:09;100786.00;;;22.95;100.00
11710;BME280;5911;51.036;6.972;2022-08-01T00:08:37;100751.94;;;22.68;100.00
11710;BME280;5911;51.036;6.972;2022-08-01T00:11:05;100790.06;;;22.78;100.00
11710;BME280;5911;51.036;6.972;2022-08-01T00:13:33;100794.81;;;22.76;100.00
11710;BME280;5911;51.036;6.972;2022-08-01T00:16:04;100783.41;;;22.74;100.00
11710;BME280;5911;51.036;6.972;2022-08-01T00:18:33;100790.00;;;22.71;100.00
11710;BME280;5911;51.036;6.972;2022-08-01T00:21:02;100776.50;;;22.58;100.00
11710;BME280;5911;51.036;6.972;2022-08-01T00:23:30;100788.94;;;22.66;100.00
11710;BME280;5911;51.036;6.972;2022-08-01T00:25:58;100795.41;;;22.71;100.00
11710;BME280;5911;51.036;6.972;2022-08-01T00:28:26;100772.16;;;22.57;100.00
11710;BME280;5911;51.036;6.972;2022-08-01T00:30:54;100764.94;;;22.58;100.00
11710;BME280;5911;51.036;6.972;2022-08-01T00:33:22;100786.06;;;22.67;100.00
11710;BME280;5911;51.036;6.972;2022-08-01T00:35:51;100790.16;;;22.63;100.00
11710;BME280;5911;51.036;6.972;2022-08-01T00:38:19;100794.53;;;22.64;100.00
11710;BME280;5911;51.036;6.972;2022-08-01T00:40:47;100796.16;;;22.59;100.00
11710;BME280;5911;51.036;6.972;2022-08-01T00:43:15;100783.34;;;22.61;100.00
11710;BME280;5911;51.036;6.972;2022-08-01T00:45:43;100780.44;;;22.56;100.00
11710;BME280;5911;51.036;6.972;2022-08-01T00:48:10;100785.81;;;22.62;100.00
11710;BME280;5911;51.036;6.972;2022-08-01T00:50:38;100786.25;;;22.59;100.00
11710;BME280;5911;51.036;6.972;2022-08-01T00:53:08;100790.38;;;22.62;100.00
11710;BME280;5911;51.036;6.972;2022-08-01T00:55:44;100785.63;;;22.64;100.00
11710;BME280;5911;51.036;6.972;2022-08-01T00:58:12;100787.28;;;22.65;100.00
11710;BME280;5911;51.036;6.972;2022-08-01T01:00:42;100787.69;;;22.62;100.00
11710;BME280;5911;51.036;6.972;2022-08-01T01:03:21;100786.84;;;22.61;100.00
11710;BME280;5911;51.036;6.972;2022-08-01T01:06:17;100788.50;;;22.56;100.00
11710;BME280;5911;51.036;6.972;2022-08-01T01:08:58;100788.50;;;22.56;100.00
11710;BME280;5911;51.036;6.972;2022-08-01T01:11:34;100789.75;;;22.60;100.00
11710;BME280;5911;51.036;6.972;2022-08-01T01:14:05;100765.00;;;22.36;100.00
11710;BME280;5911;51.036;6.972;2022-08-01T01:16:37;100797.16;;;22.51;100.00
11710;BME280;5911;51.036;6.972;2022-08-01T01:19:10;100795.84;;;22.40;100.00
11710;BME280;5911;51.036;6.972;2022-08-01T01:24:46;100760.59;;;22.22;100.00
11710;BME280;5911;51.036;6.972;2022-08-01T01:27:27;100796.91;;;22.46;100.00
11710;BME280;5911;51.036;6.972;2022-08-01T01:29:58;100793.63;;;22.51;100.00
11710;BME280;5911;51.036;6.972;2022-08-01T01:32:31;100747.34;;;22.21;100.00
11710;BME280;5911;51.036;6.972;2022-08-01T01:35:05;100794.84;;;22.48;100.00
11710;BME280;5911;51.036;6.972;2022-08-01T01:37:35;100794.00;;;22.48;100.00
11710;BME280;5911;51.036;6.972;2022-08-01T01:40:07;100790.31;;;22.49;100.00
11710;BME280;5911;51.036;6.972;2022-08-01T01:42:37;100797.72;;;22.46;100.00
11710;BME280;5911;51.036;6.972;2022-08-01T01:45:08;100793.81;;;22.49;100.00
11710;BME280;5911;51.036;6.972;2022-08-01T01:47:37;100797.72;;;22.46;100.00
11710;BME280;5911;51.036;6.972;2022-08-01T01:50:08;100796.50;;;22.42;100.00
11710;BME280;5911;51.036;6.972;2022-08-01T01:52:37;100801.47;;;22.45;100.00
11710;BME280;5911;51.036;6.972;2022-08-01T01:55:08;100782.75;;;22.31;100.00
11710;BME280;5911;51.036;6.972;2022-08-01T01:57:39;100802.72;;;22.50;100.00
11710;BME280;5911;51.036;6.972;2022-08-01T02:00:10;100805.19;;;22.44;100.00
11710;BME280;5911;51.036;6.972;2022-08-01T02:02:40;100789.78;;;22.32;100.00
11710;BME280;5911;51.036;6.972;2022-08-01T02:05:10;100795.88;;;22.47;100.00
11710;BME280;5911;51.036;6.972;2022-08-01T02:07:39;100776.78;;;22.35;100.00
11710;BME280;5911;51.036;6.972;2022-08-01T02:10:10;100798.38;;;22.49;100.00
11710;BME280;5911;51.036;6.972;2022-08-01T02:12:41;100798.97;;;22.44;100.00
11710;BME280;5911;51.036;6.972;2022-08-01T02:15:13;100791.13;;;22.42;100.00
11710;BME280;5911;51.036;6.972;2022-08-01T02:17:44;100789.84;;;22.38;100.00
11710;BME280;5911;51.036;6.972;2022-08-01T02:20:13;100793.16;;;22.40;100.00
11710;BME280;5911;51.036;6.972;2022-08-01T02:22:46;100772.63;;;22.33;100.00
11710;BME280;5911;51.036;6.972;2022-08-01T02:25:20;100771.19;;;22.30;100.00
11710;BME280;5911;51.036;6.972;2022-08-01T02:27:54;100792.78;;;22.43;100.00
11710;BME280;5911;51.036;6.972;2022-08-01T02:30:25;100789.06;;;22.44;100.00
11710;BME280;5911;51.036;6.972;2022-08-01T02:32:58;100793.16;;;22.40;100.00
11710;BME280;5911;51.036;6.972;2022-08-01T02:35:30;100789.59;;;22.33;100.00
11710;BME280;5911;51.036;6.972;2022-08-01T02:38:01;100739.19;;;22.07;100.00
11710;BME280;5911;51.036;6.972;2022-08-01T02:40:32;100783.00;;;22.36;100.00
11710;BME280;5911;51.036;6.972;2022-08-01T02:43:03;100761.06;;;22.32;100.00
11710;BME280;5911;51.036;6.972;2022-08-01T02:45:35;100775.19;;;22.41;100.00
11710;BME280;5911;51.036;6.972;2022-08-01T02:48:09;100779.34;;;22.43;100.00
11710;BME280;5911;51.036;6.972;2022-08-01T02:50:38;100774.97;;;22.42;100.00
11710;BME280;5911;51.036;6.972;2022-08-01T02:53:08;100778.50;;;22.43;100.00
11710;BME280;5911;51.036;6.972;2022-08-01T02:55:39;100782.03;;;22.43;100.00
11710;BME280;5911;51.036;6.972;2022-08-01T02:58:09;100782.59;;;22.39;100.00
11710;BME280;5911;51.036;6.972;2022-08-01T03:00:41;100771.59;;;22.34;100.00
11710;BME280;5911;51.036;6.972;2022-08-01T03:03:14;100778.63;;;22.28;100.00
11710;BME280;5911;51.036;6.972;2022-08-01T03:05:44;100771.19;;;22.30;100.00
11710;BME280;5911;51.036;6.972;2022-08-01T03:08:12;100776.16;;;22.33;100.00
11710;BME280;5911;51.036;6.972;2022-08-01T03:10:43;100774.09;;;22.35;100.00
11710;BME280;5911;51.036;6.972;2022-08-01T03:13:13;100783.16;;;22.28;100.00
11710;BME280;5911;51.036;6.972;2022-08-01T03:15:44;100783.16;;;22.28;100.00
11710;BME280;5911;51.036;6.972;2022-08-01T03:18:14;100776.53;;;22.24;100.00
11710;BME280;5911;51.036;6.972;2022-08-01T03:20:43;100787.31;;;22.30;100.00
11710;BME280;5911;51.036;6.972;2022-08-01T03:23:11;100786.06;;;22.26;100.00
11710;BME280;5911;51.036;6.972;2022-08-01T03:25:41;100781.31;;;22.28;100.00
11710;BME280;5911;51.036;6.972;2022-08-01T03:28:13;100790.41;;;22.27;100.00
11710;BME280;5911;51.036;6.972;2022-08-01T03:30:43;100794.56;;;22.30;100.00
11710;BME280;5911;51.036;6.972;2022-08-01T03:33:12;100788.53;;;22.28;100.00
11710;BME280;5911;51.036;6.972;2022-08-01T03:35:46;100787.06;;;22.25;100.00
11710;BME280;5911;51.036;6.972;2022-08-01T03:38:18;100797.19;;;22.23;100.00
11710;BME280;5911;51.036;6.972;2022-08-01T03:40:49;100796.94;;;22.18;100.00
11710;BME280;5911;51.036;6.972;2022-08-01T03:43:22;100782.19;;;22.07;100.00
11710;BME280;5911;51.036;6.972;2022-08-01T03:45:52;100801.47;;;22.18;100.00
11710;BME280;5911;51.036;6.972;2022-08-01T03:48:24;100784.69;;;22.09;100.00
11710;BME280;5911;51.036;6.972;2022-08-01T03:50:53;100806.22;;;22.16;100.00
11710;BME280;5911;51.036;6.972;2022-08-01T03:53:23;100766.41;;;21.98;100.00
11710;BME280;5911;51.036;6.972;2022-08-01T03:55:53;100799.25;;;22.21;100.00
11710;BME280;5911;51.036;6.972;2022-08-01T03:58:23;100801.28;;;22.19;100.00
11710;BME280;5911;51.036;6.972;2022-08-01T04:00:53;100802.94;;;22.20;100.00
11710;BME280;5911;51.036;6.972;2022-08-01T04:03:22;100799.25;;;22.21;100.00
11710;BME280;5911;51.036;6.972;2022-08-01T04:05:50;100791.81;;;22.23;100.00
11710;BME280;5911;51.036;6.972;2022-08-01T04:08:18;100799.44;;;22.20;100.00
11710;BME280;5911;51.036;6.972;2022-08-01T04:10:46;100792.84;;;22.22;100.00
11710;BME280;5911;51.036;6.972;2022-08-01T04:13:16;100793.88;;;22.21;100.00
11710;BME280;5911;51.036;6.972;2022-08-01T04:15:44;100790.16;;;22.22;100.00
11710;BME280;5911;51.036;6.972;2022-08-01T04:18:13;100792.19;;;22.20;100.00
11710;BME280;5911;51.036;6.972;2022-08-01T04:20:41;100779.16;;;22.17;100.00
11710;BME280;5911;51.036;6.972;2022-08-01T04:23:10;100796.94;;;22.18;100.00
11710;BME280;5911;51.036;6.972;2022-08-01T04:25:39;100791.75;;;22.17;100.00
11710;BME280;5911;51.036;6.972;2022-08-01T04:28:10;100797.97;;;22.17;100.00
11710;BME280;5911;51.036;6.972;2022-08-01T04:30:43;100796.31;;;22.16;100.00
11710;BME280;5911;51.036;6.972;2022-08-01T04:33:16;100806.66;;;22.19;100.00
11710;BME280;5911;51.036;6.972;2022-08-01T04:35:47;100810.78;;;22.15;100.00
11710;BME280;5911;51.036;6.972;2022-08-01T04:38:31;100805.63;;;22.20;100.00
11710;BME280;5911;51.036;6.972;2022-08-01T04:40:59;100811.47;;;22.24;100.00
11710;BME280;5911;51.036;6.972;2022-08-01T04:43:35;100805.06;;;22.25;100.00
11710;BME280;5911;51.036;6.972;2022-08-01T04:46:03;100815.38;;;22.21;100.00
11710;BME280;5911;51.036;6.972;2022-08-01T04:48:36;100817.59;;;22.18;100.00
11710;BME280;5911;51.036;6.972;2022-08-01T04:51:11;100817.22;;;22.21;100.00
11710;BME280;5911;51.036;6.972;2022-08-01T04:53:42;100818.22;;;22.13;100.00
11710;BME280;5911;51.036;6.972;2022-08-01T04:56:10;100831.88;;;22.18;100.00
11710;BME280;5911;51.036;6.972;2022-08-01T04:58:39;100832.13;;;22.23;100.00
11710;BME280;5911;51.036;6.972;2022-08-01T05:01:08;100835.19;;;22.20;100.00
11710;BME280;5911;51.036;6.972;2022-08-01T05:03:37;100818.59;;;22.10;100.00
11710;BME280;5911;51.036;6.972;2022-08-01T05:06:06;100833.53;;;22.19;100.00
11710;BME280;5911;51.036;6.972;2022-08-01T05:08:34;100830.47;;;22.22;100.00
11710;BME280;5911;51.036;6.972;2022-08-01T05:11:03;100828.81;;;22.21;100.00
11710;BME280;5911;51.036;6.972;2022-08-01T05:13:31;100833.53;;;22.19;100.00
11710;BME280;5911;51.036;6.972;2022-08-01T05:15:59;100800.50;;;21.97;100.00
11710;BME280;5911;51.036;6.972;2022-08-01T05:18:30;100826.91;;;22.15;100.00
11710;BME280;5911;51.036;6.972;2022-08-01T05:20:59;100826.50;;;22.18;100.00
11710;BME280;5911;51.036;6.972;2022-08-01T05:23:28;100836.88;;;22.21;100.00
11710;BME280;5911;51.036;6.972;2022-08-01T05:26:08;100833.16;;;22.22;100.00
11710;BME280;5911;51.036;6.972;2022-08-01T05:28:36;100843.66;;;22.17;100.00
11710;BME280;5911;51.036;6.972;2022-08-01T05:31:04;100843.91;;;22.22;100.00
11710;BME280;5911;51.036;6.972;2022-08-01T05:33:31;100846.75;;;22.14;100.00
11710;BME280;5911;51.036;6.972;2022-08-01T05:36:01;100849.66;;;22.19;100.00
11710;BME280;5911;51.036;6.972;2022-08-01T05:38:28;100849.03;;;22.17;100.00
11710;BME280;5911;51.036;6.972;2022-08-01T05:40:56;100848.41;;;22.15;100.00
11710;BME280;5911;51.036;6.972;2022-08-01T05:43:24;100855.03;;;22.19;100.00
11710;BME280;5911;51.036;6.972;2022-08-01T05:45:54;100852.81;;;22.23;100.00
11710;BME280;5911;51.036;6.972;2022-08-01T05:48:25;100853.44;;;22.25;100.00
11710;BME280;5911;51.036;6.972;2022-08-01T05:50:53;100861.31;;;22.26;100.00
11710;BME280;5911;51.036;6.972;2022-08-01T05:53:25;100857.97;;;22.24;100.00
11710;BME280;5911;51.036;6.972;2022-08-01T05:55:53;100858.81;;;22.25;100.00
11710;BME280;5911;51.036;6.972;2022-08-01T05:58:24;100853.63;;;22.23;100.00
11710;BME280;5911;51.036;6.972;2022-08-01T06:00:52;100855.09;;;22.26;100.00
11710;BME280;5911;51.036;6.972;2022-08-01T06:03:19;100847.03;;;22.26;100.00
11710;BME280;5911;51.036;6.972;2022-08-01T06:05:47;100858.25;;;22.29;100.00
11710;BME280;5911;51.036;6.972;2022-08-01T06:08:15;100851.84;;;22.30;100.00
11710;BME280;5911;51.036;6.972;2022-08-01T06:10:44;100828.16;;;22.19;100.00
11710;BME280;5911;51.036;6.972;2022-08-01T06:13:12;100859.34;;;22.41;100.00
11710;BME280;5911;51.036;6.972;2022-08-01T06:15:40;100861.25;;;22.48;100.00
11710;BME280;5911;51.036;6.972;2022-08-01T06:18:09;100849.47;;;22.49;100.00
11710;BME280;5911;51.036;6.972;2022-08-01T06:20:37;100853.59;;;22.44;100.00
11710;BME280;5911;51.036;6.972;2022-08-01T06:23:05;100858.53;;;22.48;100.00
11710;BME280;5911;51.036;6.972;2022-08-01T06:25:54;100865.78;;;22.47;100.00
11710;BME280;5911;51.036;6.972;2022-08-01T06:28:22;100863.97;;;22.54;100.00
11710;BME280;5911;51.036;6.972;2022-08-01T06:30:50;100858.59;;;22.54;100.00
11710;BME280;5911;51.036;6.972;2022-08-01T06:33:18;100861.03;;;22.49;100.00
11710;BME280;5911;51.036;6.972;2022-08-01T06:35:46;100858.53;;;22.48;100.00
11710;BME280;5911;51.036;6.972;2022-08-01T06:38:14;100854.63;;;22.50;100.00
11710;BME280;5911;51.036;6.972;2022-08-01T06:40:42;100859.69;;;22.60;100.00
11710;BME280;5911;51.036;6.972;2022-08-01T06:43:11;100865.28;;;22.65;100.00
11710;BME280;5911;51.036;6.972;2022-08-01T06:45:41;100856.81;;;22.68;100.00
11710;BME280;5911;51.036;6.972;2022-08-01T06:48:09;100859.75;;;22.73;100.00
11710;BME280;5911;51.036;6.972;2022-08-01T06:50:37;100863.09;;;22.75;100.00
11710;BME280;5911;51.036;6.972;2022-08-01T06:53:05;100821.78;;;22.55;100.00
11710;BME280;5911;51.036;6.972;2022-08-01T06:55:35;100856.69;;;22.76;100.00
11710;BME280;5911;51.036;6.972;2022-08-01T06:58:03;100862.31;;;22.81;100.00
11710;BME280;5911;51.036;6.972;2022-08-01T07:00:32;100862.75;;;22.85;100.00
11710;BME280;5911;51.036;6.972;2022-08-01T07:03:00;100862.53;;;22.86;100.00
11710;BME280;5911;51.036;6.972;2022-08-01T07:05:28;100829.69;;;22.63;100.00
11710;BME280;5911;51.036;6.972;2022-08-01T07:07:57;100859.22;;;22.84;100.00
11710;BME280;5911;51.036;6.972;2022-08-01T07:10:25;100851.69;;;22.73;100.00
11710;BME280;5911;51.036;6.972;2022-08-01T07:12:53;100868.31;;;22.83;100.00
11710;BME280;5911;51.036;6.972;2022-08-01T07:15:21;100867.03;;;22.79;100.00
11710;BME280;5911;51.036;6.972;2022-08-01T07:17:55;100856.69;;;22.76;100.00
11710;BME280;5911;51.036;6.972;2022-08-01T07:20:25;100872.22;;;22.80;100.00
11710;BME280;5911;51.036;6.972;2022-08-01T07:22:53;100869.34;;;22.82;100.00
11710;BME280;5911;51.036;6.972;2022-08-01T07:25:22;100872.03;;;22.82;100.00
11710;BME280;5911;51.036;6.972;2022-08-01T07:27:50;100864.16;;;22.80;100.00
11710;BME280;5911;51.036;6.972;2022-08-01T07:30:19;100862.94;;;22.83;100.00
11710;BME280;5911;51.036;6.972;2022-08-01T07:32:47;100861.28;;;22.82;100.00
11710;BME280;5911;51.036;6.972;2022-08-01T07:35:16;100865.81;;;22.82;100.00
11710;BME280;5911;51.036;6.972;2022-08-01T07:37:44;100864.59;;;22.84;100.00
11710;BME280;5911;51.036;6.972;2022-08-01T07:40:15;100869.41;;;22.89;100.00
11710;BME280;5911;51.036;6.972;2022-08-01T07:42:44;100883.69;;;22.96;100.00
11710;BME280;5911;51.036;6.972;2022-08-01T07:45:12;100879.34;;;22.95;100.00
11710;BME280;5911;51.036;6.972;2022-08-01T07:47:41;100883.09;;;23.00;100.00
11710;BME280;5911;51.036;6.972;2022-08-01T07:50:10;100879.84;;;23.11;100.00
11710;BME280;5911;51.036;6.972;2022-08-01T07:52:40;100870.28;;;23.02;100.00
11710;BME280;5911;51.036;6.972;2022-08-01T07:55:10;100889.56;;;23.12;100.00
11710;BME280;5911;51.036;6.972;2022-08-01T07:57:42;100890.78;;;23.03;100.00
11710;BME280;5911;51.036;6.972;2022-08-01T08:00:11;100891.97;;;22.94;100.00
11710;BME280;5911;51.036;6.972;2022-08-01T08:02:39;100877.59;;;22.80;100.00
11710;BME280;5911;51.036;6.972;2022-08-01T08:05:08;100885.72;;;22.87;100.00
11710;BME280;5911;51.036;6.972;2022-08-01T08:07:37;100888.19;;;22.82;100.00
11710;BME280;5911;51.036;6.972;2022-08-01T08:10:07;100889.66;;;22.85;100.00
11710;BME280;5911;51.036;6.972;2022-08-01T08:12:36;100889.06;;;22.89;100.00
11710;BME280;5911;51.036;6.972;2022-08-01T08:15:04;100886.44;;;23.02;100.00
11710;BME280;5911;51.036;6.972;2022-08-01T08:17:33;100871.25;;;22.95;100.00
11710;BME280;5911;51.036;6.972;2022-08-01T08:20:04;100887.91;;;23.11;100.00
11710;BME280;5911;51.036;6.972;2022-08-01T08:22:35;100884.59;;;23.09;100.00
11710;BME280;5911;51.036;6.972;2022-08-01T08:25:07;100891.22;;;23.13;100.00
11710;BME280;5911;51.036;6.972;2022-08-01T08:27:39;100893.97;;;23.20;100.00
11710;BME280;5911;51.036;6.972;2022-08-01T08:30:07;100881.88;;;23.09;100.00
11710;BME280;5911;51.036;6.972;2022-08-01T08:32:37;100889.00;;;23.24;100.00
11710;BME280;5911;51.036;6.972;2022-08-01T08:35:06;100891.09;;;23.28;100.00
11710;BME280;5911;51.036;6.972;2022-08-01T08:37:37;100884.66;;;23.29;100.00
11710;BME280;5911;51.036;6.972;2022-08-01T08:40:14;100913.75;;;23.47;100.00
11710;BME280;5911;51.036;6.972;2022-08-01T08:42:45;100908.97;;;23.49;100.00
11710;BME280;5911;51.036;6.972;2022-08-01T08:45:13;100900.91;;;23.49;99.64
11710;BME280;5911;51.036;6.972;2022-08-01T08:47:43;100916.03;;;23.50;99.24
11710;BME280;5911;51.036;6.972;2022-08-01T08:50:13;100905.47;;;23.48;99.27
11710;BME280;5911;51.036;6.972;2022-08-01T08:52:42;100916.69;;;23.52;99.48
11710;BME280;5911;51.036;6.972;2022-08-01T08:55:11;100902.53;;;23.37;97.96
11710;BME280;5911;51.036;6.972;2022-08-01T08:57:44;100874.50;;;23.25;97.92
11710;BME280;5911;51.036;6.972;2022-08-01T09:00:13;100910.88;;;23.55;98.40
11710;BME280;5911;51.036;6.972;2022-08-01T09:02:43;100913.78;;;23.54;97.12
11710;BME280;5911;51.036;6.972;2022-08-01T09:05:13;100884.72;;;23.42;96.44
11710;BME280;5911;51.036;6.972;2022-08-01T09:07:45;100912.16;;;23.59;96.16
11710;BME280;5911;51.036;6.972;2022-08-01T09:10:13;100911.09;;;23.60;95.97
11710;BME280;5911;51.036;6.972;2022-08-01T09:13:03;100918.38;;;23.66;96.54
11710;BME280;5911;51.036;6.972;2022-08-01T09:15:39;100889.31;;;23.48;97.26
11710;BME280;5911;51.036;6.972;2022-08-01T09:18:07;100930.00;;;23.73;97.48
11710;BME280;5911;51.036;6.972;2022-08-01T09:20:35;100907.34;;;23.55;97.22
11710;BME280;5911;51.036;6.972;2022-08-01T09:23:03;100915.63;;;23.53;97.92
11710;BME280;5911;51.036;6.972;2022-08-01T09:25:50;100921.25;;;23.52;95.40
11710;BME280;5911;51.036;6.972;2022-08-01T09:28:28;100922.00;;;23.45;95.46
11710;BME280;5911;51.036;6.972;2022-08-01T09:31:05;100935.16;;;23.62;97.06
11710;BME280;5911;51.036;6.972;2022-08-01T09:33:48;100934.97;;;23.70;95.12
11710;BME280;5911;51.036;6.972;2022-08-01T09:36:19;100935.00;;;23.76;94.84
11710;BME280;5911;51.036;6.972;2022-08-01T09:38:49;100917.16;;;23.75;93.25
11710;BME280;5911;51.036;6.972;2022-08-01T09:41:17;100930.88;;;23.94;93.31
11710;BME280;5911;51.036;6.972;2022-08-01T09:44:07;100934.41;;;24.07;93.67
11710;BME280;5911;51.036;6.972;2022-08-01T09:46:35;100923.03;;;24.12;93.14
11710;BME280;5911;51.036;6.972;2022-08-01T09:49:05;100918.22;;;24.01;91.84
11710;BME280;5911;51.036;6.972;2022-08-01T09:51:38;100939.19;;;24.05;92.79
11710;BME280;5911;51.036;6.972;2022-08-01T09:54:31;100934.84;;;24.11;94.70
11710;BME280;5911;51.036;6.972;2022-08-01T09:57:13;100918.22;;;24.01;92.29
11710;BME280;5911;51.036;6.972;2022-08-01T09:59:45;100941.25;;;24.16;92.43
11710;BME280;5911;51.036;6.972;2022-08-01T10:02:30;100949.56;;;24.15;92.07
11710;BME280;5911;51.036;6.972;2022-08-01T10:05:00;100932.97;;;24.11;92.72
11710;BME280;5911;51.036;6.972;2022-08-01T10:07:33;100929.22;;;23.99;93.63
11710;BME280;5911;51.036;6.972;2022-08-01T10:10:11;100925.50;;;23.94;91.98
11710;BME280;5911;51.036;6.972;2022-08-01T10:12:41;100925.28;;;24.02;93.24
11710;BME280;5911;51.036;6.972;2022-08-01T10:15:14;100929.47;;;24.11;92.52
11710;BME280;5911;51.036;6.972;2022-08-01T10:17:47;100927.16;;;24.08;90.69
11710;BME280;5911;51.036;6.972;2022-08-01T10:20:25;100926.53;;;24.19;91.85
11710;BME280;5911;51.036;6.972;2022-08-01T10:22:59;100932.19;;;24.24;90.96
11710;BME280;5911;51.036;6.972;2022-08-01T10:25:35;100932.19;;;24.31;90.70
11710;BME280;5911;51.036;6.972;2022-08-01T10:28:13;100874.09;;;24.08;89.42
11710;BME280;5911;51.036;6.972;2022-08-01T10:30:47;100925.31;;;24.48;89.42
11710;BME280;5911;51.036;6.972;2022-08-01T10:33:15;100930.53;;;24.56;89.17
11710;BME280;5911;51.036;6.972;2022-08-01T10:36:05;100903.56;;;24.36;87.11
11710;BME280;5911;51.036;6.972;2022-08-01T10:38:34;100934.84;;;24.64;87.45
11710;BME280;5911;51.036;6.972;2022-08-01T10:41:04;100932.16;;;24.70;87.09
11710;BME280;5911;51.036;6.972;2022-08-01T10:46:04;100921.38;;;24.64;87.73
11710;BME280;5911;51.036;6.972;2022-08-01T10:48:39;100918.66;;;24.64;86.42
11710;BME280;5911;51.036;6.972;2022-08-01T10:51:10;100922.63;;;24.68;84.97
11710;BME280;5911;51.036;6.972;2022-08-01T10:53:48;100902.66;;;24.95;84.59
11710;BME280;5911;51.036;6.972;2022-08-01T10:56:20;100913.69;;;25.45;82.10
11710;BME280;5911;51.036;6.972;2022-08-01T10:59:01;100924.88;;;25.48;76.88
11710;BME280;5911;51.036;6.972;2022-08-01T11:01:38;100919.44;;;25.55;79.30
11710;BME280;5911;51.036;6.972;2022-08-01T11:04:12;100924.41;;;25.58;78.15
11710;BME280;5911;51.036;6.972;2022-08-01T11:07:01;100920.06;;;25.57;79.26
11710;BME280;5911;51.036;6.972;2022-08-01T11:09:39;100914.91;;;25.49;77.32
11710;BME280;5911;51.036;6.972;2022-08-01T11:12:10;100920.47;;;25.54;76.60
11710;BME280;5911;51.036;6.972;2022-08-01T11:15:16;100914.91;;;25.49;74.94
11710;BME280;5911;51.036;6.972;2022-08-01T11:17:59;100922.25;;;25.29;77.49
11710;BME280;5911;51.036;6.972;2022-08-01T11:20:29;100914.66;;;25.12;77.30
11710;BME280;5911;51.036;6.972;2022-08-01T11:23:28;100918.41;;;24.92;80.74
11710;BME280;5911;51.036;6.972;2022-08-01T11:26:09;100921.34;;;24.83;83.43
11710;BME280;5911;51.036;6.972;2022-08-01T11:28:38;100915.53;;;24.80;83.30
11710;BME280;5911;51.036;6.972;2022-08-01T11:31:28;100908.50;;;24.72;82.60
11710;BME280;5911;51.036;6.972;2022-08-01T11:34:05;100904.19;;;25.36;80.06
11710;BME280;5911;51.036;6.972;2022-08-01T11:36:34;100910.94;;;26.21;76.55
11710;BME280;5911;51.036;6.972;2022-08-01T11:39:21;100906.03;;;26.79;70.13
11710;BME280;5911;51.036;6.972;2022-08-01T11:41:50;100879.50;;;27.06;69.02
11710;BME280;5911;51.036;6.972;2022-08-01T11:44:25;100917.38;;;27.61;63.85
11710;BME280;5911;51.036;6.972;2022-08-01T11:46:58;100908.63;;;27.89;59.14
11710;BME280;5911;51.036;6.972;2022-08-01T11:49:47;100911.97;;;28.02;57.32
11710;BME280;5911;51.036;6.972;2022-08-01T11:52:18;100916.09;;;28.05;57.55
11710;BME280;5911;51.036;6.972;2022-08-01T11:54:47;100908.66;;;27.59;59.62
11710;BME280;5911;51.036;6.972;2022-08-01T11:57:19;100903.28;;;27.04;61.82
11710;BME280;5911;51.036;6.972;2022-08-01T11:59:50;100903.84;;;26.70;64.50
11710;BME280;5911;51.036;6.972;2022-08-01T12:02:37;100901.38;;;26.43;65.17
11710;BME280;5911;51.036;6.972;2022-08-01T12:05:08;100897.09;;;26.36;65.37
11710;BME280;5911;51.036;6.972;2022-08-01T12:08:08;100909.44;;;26.25;65.14
11710;BME280;5911;51.036;6.972;2022-08-01T12:10:36;100907.56;;;26.50;64.17
11710;BME280;5911;51.036;6.972;2022-08-01T12:13:15;100905.97;;;26.86;61.12
11710;BME280;5911;51.036;6.972;2022-08-01T12:15:44;100893.47;;;27.21;60.12
11710;BME280;5911;51.036;6.972;2022-08-01T12:18:13;100915.88;;;27.65;56.75
11710;BME280;5911;51.036;6.972;2022-08-01T12:20:44;100921.44;;;27.82;54.98
11710;BME280;5911;51.036;6.972;2022-08-01T12:23:23;100905.00;;;27.95;54.30
11710;BME280;5911;51.036;6.972;2022-08-01T12:25:51;100916.34;;;28.04;53.63
11710;BME280;5911;51.036;6.972;2022-08-01T12:28:19;100915.88;;;28.18;53.61
11710;BME280;5911;51.036;6.972;2022-08-01T12:30:49;100915.00;;;28.24;54.60
11710;BME280;5911;51.036;6.972;2022-08-01T12:33:19;100928.56;;;28.36;53.03
11710;BME280;5911;51.036;6.972;2022-08-01T12:35:48;100923.38;;;28.46;53.16
11710;BME280;5911;51.036;6.972;2022-08-01T12:38:19;100907.34;;;28.56;52.74
11710;BME280;5911;51.036;6.972;2022-08-01T12:40:48;100913.00;;;28.55;52.80
11710;BME280;5911;51.036;6.972;2022-08-01T12:43:20;100912.50;;;28.23;54.07
11710;BME280;5911;51.036;6.972;2022-08-01T12:45:55;100910.22;;;28.08;54.98
11710;BME280;5911;51.036;6.972;2022-08-01T12:48:26;100905.56;;;27.85;55.26
11710;BME280;5911;51.036;6.972;2022-08-01T12:50:56;100913.28;;;27.52;57.00
11710;BME280;5911;51.036;6.972;2022-08-01T12:53:27;100887.78;;;27.11;55.80
11710;BME280;5911;51.036;6.972;2022-08-01T12:56:08;100880.16;;;26.83;56.83
11710;BME280;5911;51.036;6.972;2022-08-01T12:58:37;100898.34;;;27.01;55.77
11710;BME280;5911;51.036;6.972;2022-08-01T13:01:06;100910.59;;;27.52;53.38
11710;BME280;5911;51.036;6.972;2022-08-01T13:03:34;100893.63;;;27.26;51.08
11710;BME280;5911;51.036;6.972;2022-08-01T13:06:11;100886.66;;;27.01;52.21
11710;BME280;5911;51.036;6.972;2022-08-01T13:08:42;100885.91;;;26.93;51.49
11710;BME280;5911;51.036;6.972;2022-08-01T13:11:12;100907.53;;;27.48;51.13
11710;BME280;5911;51.036;6.972;2022-08-01T13:13:44;100877.09;;;27.64;52.65
11710;BME280;5911;51.036;6.972;2022-08-01T13:16:14;100910.59;;;27.52;50.87
11710;BME280;5911;51.036;6.972;2022-08-01T13:19:04;100901.31;;;27.11;50.71
11710;BME280;5911;51.036;6.972;2022-08-01T13:21:34;100905.84;;;26.99;51.00